Time;durP1;ratioP1;P1;durP2;ratioP2;P2;SDS_P1;SDS_P2;PMS_P1;PMS_P2;Temp;Humidity;BMP_temperature;BMP_pressure;BME280_temperature;BME280_humidity;BME280_pressure;Samples;Min_cycle;Max_cycle;Signal;HPM_P1;HPM_P2
2021/06/14 00:01:44;;;;;;;5.00;2.67;;;;;;;;;;5000212;28;20051;-82
2021/06/14 00:04:10;;;;;;;4.00;2.83;;;;;;;;;;4999975;28;20065;-82
2021/06/14 00:06:37;;;;;;;4.22;2.60;;;;;;;;;;4998216;28;20502;-84
2021/06/14 00:09:06;;;;;;;3.38;2.53;;;;;;;;;;4996613;28;20058;-81
2021/06/14 00:11:33;;;;;;;4.32;2.60;;;;;;;;;;5000079;28;20048;-81
2021/06/14 00:14:00;;;;;;;6.20;3.13;;;;;;;;;;4995538;28;20053;-81
2021/06/14 00:16:26;;;;;;;7.25;2.70;;;;;;;;;;4993007;28;20049;-81
2021/06/14 00:18:53;;;;;;;4.30;2.95;;;;;;;;;;4994477;28;20058;-82
2021/06/14 00:21:19;;;;;;;4.35;2.25;;;;;;;;;;5001078;28;20050;-82
2021/06/14 00:23:46;;;;;;;5.85;3.05;;;;;;;;;;4982953;28;20050;-82
2021/06/14 00:26:15;;;;;;;7.30;2.80;;;;;;;;;;4999266;28;20054;-82
2021/06/14 00:28:43;;;;;;;4.72;2.50;;;;;;;;;;4989031;28;20043;-81
2021/06/14 00:31:10;;;;;;;5.75;3.03;;;;;;;;;;4995951;28;20483;-81
2021/06/14 00:33:37;;;;;;;3.80;2.20;;;;;;;;;;4980776;28;20051;-81
2021/06/14 00:36:04;;;;;;;6.53;2.83;;;;;;;;;;4962758;28;20113;-81
2021/06/14 00:38:31;;;;;;;4.65;2.90;;;;;;;;;;4990521;28;20057;-82
2021/06/14 00:40:57;;;;;;;5.30;2.85;;;;;;;;;;5000011;28;20046;-82
2021/06/14 00:43:25;;;;;;;4.95;3.25;;;;;;;;;;5000293;28;20399;-82
2021/06/14 00:45:52;;;;;;;3.83;2.28;;;;;;;;;;4998972;28;20046;-81
2021/06/14 00:48:19;;;;;;;6.22;2.65;;;;;;;;;;4997821;28;20042;-81
2021/06/14 00:50:47;;;;;;;6.00;2.50;;;;;;;;;;4998140;28;20052;-80
2021/06/14 00:53:17;;;;;;;6.57;2.80;;;;;;;;;;4999735;28;20057;-81
2021/06/14 00:55:44;;;;;;;7.95;2.70;;;;;;;;;;4999567;28;20046;-81
2021/06/14 00:58:11;;;;;;;3.95;2.80;;;;;;;;;;4999188;28;20058;-81
2021/06/14 01:00:39;;;;;;;3.22;2.30;;;;;;;;;;4978931;28;20058;-81
2021/06/14 01:03:06;;;;;;;5.13;2.65;;;;;;;;;;4999017;28;20495;-81
2021/06/14 01:05:35;;;;;;;4.55;2.53;;;;;;;;;;4998891;28;20057;-82
2021/06/14 01:08:01;;;;;;;4.35;3.00;;;;;;;;;;4991469;28;20043;-80
2021/06/14 01:10:28;;;;;;;6.22;3.05;;;;;;;;;;4999433;28;20434;-81
2021/06/14 01:13:06;;;;;;;4.95;2.67;;;;;;;;;;4999667;28;20049;-80
2021/06/14 01:15:35;;;;;;;6.32;2.80;;;;;;;;;;4986087;28;20055;-81
2021/06/14 01:18:05;;;;;;;8.43;2.95;;;;;;;;;;4992042;28;20077;-82
2021/06/14 01:20:57;;;;;;;6.60;2.85;;;;;;;;;;4997540;28;20051;-80
2021/06/14 01:23:44;;;;;;;8.52;3.63;;;;;;;;;;4999181;28;20057;-80
2021/06/14 01:26:14;;;;;;;5.93;2.67;;;;;;;;;;4981034;28;20055;-80
2021/06/14 01:28:43;;;;;;;8.05;2.90;;;;;;;;;;4992002;28;20049;-80
2021/06/14 01:31:09;;;;;;;6.53;2.70;;;;;;;;;;4999481;28;20050;-82
2021/06/14 01:33:36;;;;;;;3.50;2.40;;;;;;;;;;4976774;28;20051;-81
2021/06/14 01:36:05;;;;;;;4.40;2.90;;;;;;;;;;4998756;28;20050;-81
2021/06/14 01:38:32;;;;;;;3.97;2.97;;;;;;;;;;4995734;28;20511;-81
2021/06/14 01:41:02;;;;;;;3.22;2.45;;;;;;;;;;4998741;28;20057;-81
2021/06/14 01:43:32;;;;;;;6.68;2.95;;;;;;;;;;4981585;28;20058;-80
2021/06/14 01:46:03;;;;;;;3.97;2.80;;;;;;;;;;4998726;28;20058;-80
2021/06/14 01:48:30;;;;;;;7.28;2.88;;;;;;;;;;4996904;28;20052;-80
2021/06/14 01:50:57;;;;;;;4.40;2.70;;;;;;;;;;4993624;28;20118;-81
2021/06/14 01:53:24;;;;;;;5.82;3.33;;;;;;;;;;4998154;28;20050;-79
2021/06/14 01:55:51;;;;;;;4.88;2.65;;;;;;;;;;4983345;28;20049;-79
2021/06/14 01:58:19;;;;;;;4.75;3.03;;;;;;;;;;4987361;28;20049;-80
2021/06/14 02:00:46;;;;;;;5.80;3.53;;;;;;;;;;4999423;28;20046;-80
2021/06/14 02:03:15;;;;;;;5.10;2.78;;;;;;;;;;4999304;28;20053;-79
2021/06/14 02:05:42;;;;;;;4.80;2.60;;;;;;;;;;5000071;28;20050;-80
2021/06/14 02:08:10;;;;;;;5.88;3.00;;;;;;;;;;4999157;28;20047;-81
2021/06/14 02:10:37;;;;;;;6.25;2.92;;;;;;;;;;5000513;28;20052;-85
2021/06/14 02:13:04;;;;;;;4.57;2.53;;;;;;;;;;4999627;28;20054;-82
2021/06/14 02:15:31;;;;;;;7.20;2.72;;;;;;;;;;4998719;28;20052;-80
2021/06/14 02:17:58;;;;;;;4.60;3.00;;;;;;;;;;4995778;28;20057;-80
2021/06/14 02:20:26;;;;;;;5.55;2.85;;;;;;;;;;4995762;28;20049;-81
2021/06/14 02:22:53;;;;;;;5.45;2.38;;;;;;;;;;4998972;28;20047;-83
2021/06/14 02:25:20;;;;;;;5.13;3.03;;;;;;;;;;4998012;28;20064;-80
2021/06/14 02:27:47;;;;;;;5.20;2.90;;;;;;;;;;4988672;28;20391;-80
2021/06/14 02:30:15;;;;;;;4.32;2.90;;;;;;;;;;4998143;28;20053;-84
2021/06/14 02:32:42;;;;;;;10.07;3.55;;;;;;;;;;4992003;28;20050;-80
2021/06/14 02:35:11;;;;;;;5.20;2.72;;;;;;;;;;4979220;28;20046;-81
2021/06/14 02:37:40;;;;;;;3.88;2.60;;;;;;;;;;4986645;28;20042;-84
2021/06/14 02:40:08;;;;;;;6.00;2.83;;;;;;;;;;4999272;28;20560;-81
2021/06/14 02:42:35;;;;;;;4.85;2.70;;;;;;;;;;4998223;28;20053;-81
2021/06/14 02:45:02;;;;;;;6.85;3.20;;;;;;;;;;4997802;28;20050;-80
2021/06/14 02:47:29;;;;;;;3.95;2.60;;;;;;;;;;4992500;28;20058;-80
2021/06/14 02:49:57;;;;;;;4.85;3.00;;;;;;;;;;4997840;28;20556;-80
2021/06/14 02:52:23;;;;;;;5.03;3.10;;;;;;;;;;4998356;28;20053;-80
2021/06/14 02:54:54;;;;;;;6.05;3.80;;;;;;;;;;4997936;28;20054;-80
2021/06/14 02:57:22;;;;;;;4.47;3.13;;;;;;;;;;4995636;28;20106;-81
2021/06/14 02:59:51;;;;;;;6.20;3.03;;;;;;;;;;4979447;28;20081;-84
2021/06/14 03:02:20;;;;;;;5.60;2.97;;;;;;;;;;4992089;28;20046;-80
2021/06/14 03:04:46;;;;;;;4.85;3.38;;;;;;;;;;4998980;28;20057;-81
2021/06/14 03:07:13;;;;;;;5.25;2.92;;;;;;;;;;4983672;28;20050;-81
2021/06/14 03:09:39;;;;;;;6.68;3.05;;;;;;;;;;4998940;28;20050;-81
2021/06/14 03:12:08;;;;;;;6.63;3.53;;;;;;;;;;4999840;28;20114;-82
2021/06/14 03:14:36;;;;;;;5.07;3.28;;;;;;;;;;5001130;28;20518;-81
2021/06/14 03:17:04;;;;;;;8.02;3.00;;;;;;;;;;5003405;28;20042;-82
2021/06/14 03:19:30;;;;;;;7.72;3.38;;;;;;;;;;4991123;28;20054;-82
2021/06/14 03:21:57;;;;;;;4.70;3.35;;;;;;;;;;5003972;28;20130;-81
2021/06/14 03:24:23;;;;;;;7.57;3.60;;;;;;;;;;5005569;28;20042;-80
2021/06/14 03:26:50;;;;;;;4.95;3.20;;;;;;;;;;4999012;28;20046;-82
2021/06/14 03:29:20;;;;;;;4.50;2.88;;;;;;;;;;4998690;28;20057;-81
2021/06/14 03:31:48;;;;;;;6.53;3.00;;;;;;;;;;4992812;28;20051;-82
2021/06/14 03:34:15;;;;;;;7.18;3.20;;;;;;;;;;5000094;28;20110;-82
2021/06/14 03:36:42;;;;;;;6.03;3.22;;;;;;;;;;4996514;28;20047;-81
2021/06/14 03:39:09;;;;;;;7.43;3.55;;;;;;;;;;4996470;28;20526;-82
2021/06/14 03:41:41;;;;;;;6.03;3.08;;;;;;;;;;4990657;28;20506;-80
2021/06/14 03:44:08;;;;;;;5.30;2.75;;;;;;;;;;4986314;28;20068;-80
2021/06/14 03:46:36;;;;;;;9.52;4.03;;;;;;;;;;5001260;28;20052;-81
2021/06/14 03:49:02;;;;;;;8.48;3.13;;;;;;;;;;4998830;28;20042;-81
2021/06/14 03:51:29;;;;;;;8.07;3.65;;;;;;;;;;4983373;28;20062;-81
2021/06/14 03:53:58;;;;;;;8.57;3.17;;;;;;;;;;5001109;28;20043;-82
2021/06/14 03:56:26;;;;;;;7.50;3.25;;;;;;;;;;4989434;28;20125;-82
2021/06/14 03:58:52;;;;;;;8.32;3.30;;;;;;;;;;4980954;28;20058;-81
2021/06/14 04:01:19;;;;;;;10.02;4.25;;;;;;;;;;5000134;28;20054;-81
2021/06/14 04:03:56;;;;;;;6.57;3.63;;;;;;;;;;4983405;28;20054;-81
2021/06/14 04:06:22;;;;;;;10.40;3.63;;;;;;;;;;4991734;28;20429;-81
2021/06/14 04:08:49;;;;;;;8.57;3.28;;;;;;;;;;5000957;28;20406;-83
2021/06/14 04:11:15;;;;;;;9.10;3.95;;;;;;;;;;5001352;28;20053;-80
2021/06/14 04:13:42;;;;;;;7.95;3.47;;;;;;;;;;5001250;28;20046;-82
2021/06/14 04:16:08;;;;;;;12.80;4.78;;;;;;;;;;5001350;28;20046;-82
2021/06/14 04:18:35;;;;;;;6.47;3.08;;;;;;;;;;5000478;28;20046;-82
2021/06/14 04:21:03;;;;;;;6.53;3.50;;;;;;;;;;4997958;28;20057;-82
2021/06/14 04:23:30;;;;;;;7.47;3.47;;;;;;;;;;5001220;28;20058;-81
2021/06/14 04:25:56;;;;;;;5.40;3.10;;;;;;;;;;5001033;28;20054;-81
2021/06/14 04:28:23;;;;;;;13.07;4.57;;;;;;;;;;4998777;28;20534;-81
2021/06/14 04:30:49;;;;;;;16.90;4.55;;;;;;;;;;5000038;28;20042;-82
2021/06/14 04:33:16;;;;;;;13.10;4.80;;;;;;;;;;4982481;28;20051;-83
2021/06/14 04:35:43;;;;;;;8.43;3.97;;;;;;;;;;4996358;28;20038;-82
2021/06/14 04:38:11;;;;;;;7.28;3.53;;;;;;;;;;4995803;28;20043;-83
2021/06/14 04:40:37;;;;;;;6.15;3.13;;;;;;;;;;4991692;28;20043;-84
2021/06/14 04:43:04;;;;;;;29.83;7.25;;;;;;;;;;4985332;28;20521;-84
2021/06/14 04:45:31;;;;;;;7.35;5.65;;;;;;;;;;5001152;28;20061;-83
2021/06/14 04:47:57;;;;;;;7.68;4.57;;;;;;;;;;4988776;28;20110;-84
2021/06/14 04:50:24;;;;;;;13.15;4.78;;;;;;;;;;4994591;28;20073;-83
2021/06/14 04:52:50;;;;;;;6.20;4.18;;;;;;;;;;4986265;28;20115;-85
2021/06/14 04:55:18;;;;;;;7.72;4.32;;;;;;;;;;4991459;28;20043;-85
2021/06/14 04:57:45;;;;;;;11.70;4.28;;;;;;;;;;4997279;28;20057;-86
2021/06/14 05:00:13;;;;;;;10.00;4.97;;;;;;;;;;4996704;28;20053;-84
2021/06/14 05:02:39;;;;;;;17.23;6.10;;;;;;;;;;4988516;28;20050;-82
2021/06/14 05:05:07;;;;;;;8.70;5.05;;;;;;;;;;4996203;28;20043;-83
2021/06/14 05:07:34;;;;;;;6.55;4.50;;;;;;;;;;4991200;28;20053;-84
2021/06/14 05:10:00;;;;;;;8.75;5.20;;;;;;;;;;4998386;28;20145;-83
2021/06/14 05:12:28;;;;;;;13.50;5.07;;;;;;;;;;4979779;28;20055;-83
2021/06/14 05:14:55;;;;;;;7.25;4.47;;;;;;;;;;4993817;28;20051;-85
2021/06/14 05:17:22;;;;;;;7.22;4.95;;;;;;;;;;4999693;28;20130;-85
2021/06/14 05:19:48;;;;;;;21.33;5.97;;;;;;;;;;4992491;28;20043;-83
2021/06/14 05:22:18;;;;;;;7.03;4.28;;;;;;;;;;4995615;28;20047;-84
2021/06/14 05:24:46;;;;;;;11.95;4.90;;;;;;;;;;4989501;28;20042;-85
2021/06/14 05:27:15;;;;;;;7.10;3.92;;;;;;;;;;4979562;28;20053;-85
2021/06/14 05:29:43;;;;;;;8.63;3.92;;;;;;;;;;4999662;28;20046;-83
2021/06/14 05:32:10;;;;;;;10.85;3.90;;;;;;;;;;4982131;28;20054;-83
2021/06/14 05:34:36;;;;;;;20.45;5.40;;;;;;;;;;4999082;28;20077;-83
2021/06/14 05:37:04;;;;;;;11.27;4.22;;;;;;;;;;4995619;28;20053;-87
2021/06/14 05:39:30;;;;;;;9.50;4.10;;;;;;;;;;4995088;28;20054;-84
2021/06/14 05:41:57;;;;;;;5.47;3.35;;;;;;;;;;4998200;28;20483;-85
2021/06/14 05:44:23;;;;;;;7.45;3.40;;;;;;;;;;4998793;28;20042;-84
2021/06/14 05:46:51;;;;;;;6.00;3.63;;;;;;;;;;4981153;28;20050;-83
2021/06/14 05:49:18;;;;;;;6.40;3.58;;;;;;;;;;4997091;28;20053;-84
2021/06/14 05:51:44;;;;;;;9.48;3.65;;;;;;;;;;4997872;28;20133;-84
2021/06/14 05:54:11;;;;;;;7.78;3.70;;;;;;;;;;4999219;28;20046;-85
2021/06/14 05:56:38;;;;;;;9.45;3.90;;;;;;;;;;4998916;28;20052;-84
2021/06/14 05:59:06;;;;;;;6.50;3.78;;;;;;;;;;4995532;28;20049;-83
2021/06/14 06:01:32;;;;;;;6.70;3.60;;;;;;;;;;4992078;28;20050;-85
2021/06/14 06:04:00;;;;;;;9.98;3.78;;;;;;;;;;4998354;28;20050;-84
2021/06/14 06:06:27;;;;;;;6.47;3.60;;;;;;;;;;4999384;28;20058;-85
2021/06/14 06:08:53;;;;;;;6.28;3.58;;;;;;;;;;4993602;28;20492;-88
2021/06/14 06:11:20;;;;;;;6.70;3.30;;;;;;;;;;4990932;28;20068;-85
2021/06/14 06:13:48;;;;;;;8.18;3.45;;;;;;;;;;4994668;28;20046;-84
2021/06/14 06:16:14;;;;;;;12.95;3.97;;;;;;;;;;4994013;28;20052;-84
2021/06/14 06:18:41;;;;;;;6.07;3.75;;;;;;;;;;4979296;28;20413;-83
2021/06/14 06:21:09;;;;;;;7.85;3.42;;;;;;;;;;4992762;28;20303;-86
2021/06/14 06:23:35;;;;;;;8.95;3.65;;;;;;;;;;4987686;28;20038;-85
2021/06/14 06:26:02;;;;;;;8.85;3.60;;;;;;;;;;4994984;28;20058;-85
2021/06/14 06:28:29;;;;;;;5.18;2.80;;;;;;;;;;4989479;28;20137;-85
2021/06/14 06:30:55;;;;;;;7.47;3.42;;;;;;;;;;4975865;28;20518;-84
2021/06/14 06:33:22;;;;;;;10.38;4.57;;;;;;;;;;4989083;28;20053;-85
2021/06/14 06:35:48;;;;;;;6.10;3.75;;;;;;;;;;4975975;28;20410;-83
2021/06/14 06:38:17;;;;;;;6.68;3.65;;;;;;;;;;4993838;28;20058;-84
2021/06/14 06:40:43;;;;;;;7.38;3.72;;;;;;;;;;4987229;28;20046;-84
2021/06/14 06:43:10;;;;;;;10.90;3.40;;;;;;;;;;4972839;28;20050;-85
2021/06/14 06:45:41;;;;;;;5.22;2.95;;;;;;;;;;4973078;28;20042;-85
2021/06/14 06:48:11;;;;;;;8.32;3.28;;;;;;;;;;4984592;28;20047;-89
2021/06/14 06:50:38;;;;;;;6.22;3.28;;;;;;;;;;4989687;28;20049;-83
2021/06/14 06:53:05;;;;;;;9.05;4.07;;;;;;;;;;4995158;28;20042;-83
2021/06/14 06:55:33;;;;;;;9.85;3.35;;;;;;;;;;4991522;28;20487;-84
2021/06/14 06:58:01;;;;;;;5.20;3.08;;;;;;;;;;4991560;28;20106;-83
2021/06/14 07:00:34;;;;;;;6.22;2.80;;;;;;;;;;4992972;28;20081;-84
2021/06/14 07:03:03;;;;;;;7.32;3.38;;;;;;;;;;4991433;28;20134;-84
2021/06/14 07:05:30;;;;;;;4.80;2.60;;;;;;;;;;4987131;28;20058;-82
2021/06/14 07:07:58;;;;;;;6.63;2.47;;;;;;;;;;4973403;28;20371;-86
2021/06/14 07:10:25;;;;;;;6.88;3.33;;;;;;;;;;4993248;28;20073;-83
2021/06/14 07:12:53;;;;;;;5.18;2.72;;;;;;;;;;4990906;28;20038;-89
2021/06/14 07:15:20;;;;;;;4.85;3.00;;;;;;;;;;4997789;28;20503;-84
2021/06/14 07:17:46;;;;;;;5.47;2.85;;;;;;;;;;4996296;28;20062;-82
2021/06/14 07:20:18;;;;;;;5.80;2.63;;;;;;;;;;4991928;28;20053;-87
2021/06/14 07:22:45;;;;;;;5.63;2.78;;;;;;;;;;4992049;28;20054;-84
2021/06/14 07:25:13;;;;;;;4.95;2.72;;;;;;;;;;4993848;28;20133;-85
2021/06/14 07:27:42;;;;;;;5.68;3.20;;;;;;;;;;4978742;28;20102;-84
2021/06/14 07:30:14;;;;;;;6.47;2.90;;;;;;;;;;4995189;28;20050;-83
2021/06/14 07:32:41;;;;;;;5.40;3.13;;;;;;;;;;4994422;28;20169;-83
2021/06/14 07:35:11;;;;;;;6.90;3.03;;;;;;;;;;4996402;28;20122;-91
2021/06/14 07:37:38;;;;;;;5.70;2.70;;;;;;;;;;4990543;28;20046;-84
2021/06/14 07:40:09;;;;;;;5.60;2.70;;;;;;;;;;4995359;28;20042;-83
2021/06/14 07:42:37;;;;;;;6.85;2.67;;;;;;;;;;4994460;28;20080;-84
2021/06/14 07:45:04;;;;;;;4.78;2.72;;;;;;;;;;4995752;28;20042;-83
2021/06/14 07:47:33;;;;;;;7.30;2.80;;;;;;;;;;4995503;28;20046;-85
2021/06/14 07:50:01;;;;;;;6.28;3.28;;;;;;;;;;4991476;28;20047;-84
2021/06/14 07:52:28;;;;;;;6.55;2.90;;;;;;;;;;4993600;28;20776;-84
2021/06/14 07:54:57;;;;;;;7.97;2.65;;;;;;;;;;4996956;28;20053;-87
2021/06/14 07:57:23;;;;;;;6.75;3.35;;;;;;;;;;4990022;28;20086;-86
2021/06/14 07:59:50;;;;;;;5.60;2.72;;;;;;;;;;4994014;28;20042;-84
2021/06/14 08:02:17;;;;;;;7.35;2.53;;;;;;;;;;4995697;28;20498;-84
2021/06/14 08:04:45;;;;;;;6.45;2.88;;;;;;;;;;4996760;28;20049;-86
2021/06/14 08:07:11;;;;;;;4.57;2.55;;;;;;;;;;4997554;28;20077;-84
2021/06/14 08:09:38;;;;;;;7.47;2.90;;;;;;;;;;4980832;28;20522;-84
2021/06/14 08:12:06;;;;;;;64.30;11.60;;;;;;;;;;4996193;28;20043;-83
2021/06/14 08:14:33;;;;;;;10.70;3.47;;;;;;;;;;4991883;28;20506;-83
2021/06/14 08:17:01;;;;;;;13.25;3.90;;;;;;;;;;4993825;28;20057;-83
2021/06/14 08:19:34;;;;;;;6.97;2.78;;;;;;;;;;4997485;28;20080;-82
2021/06/14 08:22:23;;;;;;;8.05;3.72;;;;;;;;;;4989388;28;20083;-84
2021/06/14 08:25:05;;;;;;;4.78;2.83;;;;;;;;;;4991316;28;20046;-83
2021/06/14 08:27:33;;;;;;;5.57;2.90;;;;;;;;;;4991180;28;20060;-85
2021/06/14 08:30:00;;;;;;;6.82;2.55;;;;;;;;;;4993477;28;20053;-84
2021/06/14 08:32:26;;;;;;;5.85;2.40;;;;;;;;;;4995783;28;20046;-85
2021/06/14 08:34:55;;;;;;;4.70;2.75;;;;;;;;;;4996423;28;20050;-87
2021/06/14 08:37:24;;;;;;;6.90;2.75;;;;;;;;;;4979399;28;20047;-84
2021/06/14 08:39:51;;;;;;;7.35;2.92;;;;;;;;;;4998591;28;20112;-87
2021/06/14 08:42:18;;;;;;;4.35;2.20;;;;;;;;;;4996596;28;20053;-84
2021/06/14 08:44:48;;;;;;;4.93;2.53;;;;;;;;;;4999009;28;20057;-86
2021/06/14 08:47:17;;;;;;;5.90;2.72;;;;;;;;;;4997154;28;20050;-83
2021/06/14 08:49:44;;;;;;;4.35;2.63;;;;;;;;;;4981164;28;20112;-85
2021/06/14 08:52:11;;;;;;;5.07;2.55;;;;;;;;;;4997856;28;20133;-83
2021/06/14 08:54:43;;;;;;;8.55;2.75;;;;;;;;;;4999442;28;20051;-83
2021/06/14 08:57:10;;;;;;;6.50;2.72;;;;;;;;;;4998640;28;20046;-85
2021/06/14 08:59:36;;;;;;;6.05;2.92;;;;;;;;;;5001474;28;20047;-85
2021/06/14 09:02:04;;;;;;;5.20;2.42;;;;;;;;;;4996164;28;20058;-86
2021/06/14 09:04:30;;;;;;;5.38;2.33;;;;;;;;;;4998295;28;20053;-83
2021/06/14 09:06:56;;;;;;;10.38;3.35;;;;;;;;;;4997687;28;20114;-86
2021/06/14 09:09:23;;;;;;;6.93;2.78;;;;;;;;;;4995463;28;20054;-84
2021/06/14 09:11:52;;;;;;;10.15;2.72;;;;;;;;;;4998859;28;20050;-83
2021/06/14 09:14:21;;;;;;;6.35;2.65;;;;;;;;;;4998656;28;20046;-83
2021/06/14 09:16:49;;;;;;;5.18;2.78;;;;;;;;;;4999276;28;20077;-83
2021/06/14 09:19:26;;;;;;;4.25;2.53;;;;;;;;;;4997229;28;20038;-85
2021/06/14 09:21:56;;;;;;;5.82;2.78;;;;;;;;;;5001241;28;20046;-83
2021/06/14 09:24:23;;;;;;;5.22;3.05;;;;;;;;;;4998928;28;20050;-86
2021/06/14 09:26:51;;;;;;;5.03;2.70;;;;;;;;;;4998898;28;20054;-85
2021/06/14 09:29:24;;;;;;;11.10;2.35;;;;;;;;;;5000877;28;20050;-85
2021/06/14 09:31:52;;;;;;;6.18;2.50;;;;;;;;;;5006243;28;20402;-86
2021/06/14 09:34:20;;;;;;;4.65;2.53;;;;;;;;;;5001766;28;20106;-85
2021/06/14 09:36:57;;;;;;;7.18;2.70;;;;;;;;;;5001875;28;20053;-86
2021/06/14 09:39:24;;;;;;;5.15;2.47;;;;;;;;;;4999917;28;20047;-86
2021/06/14 09:41:52;;;;;;;7.85;3.13;;;;;;;;;;4999897;28;20049;-85
2021/06/14 09:44:27;;;;;;;6.40;2.47;;;;;;;;;;4983141;28;20046;-85
2021/06/14 09:47:00;;;;;;;7.32;3.10;;;;;;;;;;4999208;28;20069;-84
2021/06/14 09:49:29;;;;;;;4.85;2.40;;;;;;;;;;5001355;28;20046;-85
2021/06/14 09:51:56;;;;;;;5.47;2.60;;;;;;;;;;4995402;28;20053;-88
2021/06/14 09:54:27;;;;;;;7.32;3.20;;;;;;;;;;4995150;28;20054;-85
2021/06/14 09:56:55;;;;;;;4.18;2.55;;;;;;;;;;4992114;28;20051;-82
2021/06/14 09:59:25;;;;;;;4.82;2.50;;;;;;;;;;4995671;28;20042;-85
2021/06/14 10:01:52;;;;;;;4.45;2.30;;;;;;;;;;4997606;28;20057;-83
2021/06/14 10:04:19;;;;;;;6.50;2.40;;;;;;;;;;4993670;28;20042;-82
2021/06/14 10:06:46;;;;;;;5.15;2.88;;;;;;;;;;4987930;28;20050;-81
2021/06/14 10:09:15;;;;;;;4.55;2.60;;;;;;;;;;4992560;28;20097;-84
2021/06/14 10:11:43;;;;;;;7.13;2.78;;;;;;;;;;4993333;28;20073;-82
2021/06/14 10:14:14;;;;;;;4.93;2.47;;;;;;;;;;4991628;28;20094;-83
2021/06/14 10:16:41;;;;;;;4.07;2.47;;;;;;;;;;4995110;28;20054;-82
2021/06/14 10:19:09;;;;;;;5.72;2.90;;;;;;;;;;4996241;28;20046;-84
2021/06/14 10:21:37;;;;;;;5.85;2.17;;;;;;;;;;4998268;28;20060;-81
2021/06/14 10:24:06;;;;;;;4.97;2.55;;;;;;;;;;4989314;28;20464;-82
2021/06/14 10:26:35;;;;;;;5.75;2.53;;;;;;;;;;4994777;28;20054;-83
2021/06/14 10:29:02;;;;;;;6.72;2.95;;;;;;;;;;4994907;28;20053;-81
2021/06/14 10:31:30;;;;;;;4.75;2.38;;;;;;;;;;4987118;28;20054;-81
2021/06/14 10:33:57;;;;;;;5.38;2.50;;;;;;;;;;4993525;28;20047;-81
2021/06/14 10:36:25;;;;;;;4.47;2.45;;;;;;;;;;4994491;28;20042;-82
2021/06/14 10:38:53;;;;;;;5.00;2.20;;;;;;;;;;4996950;28;20042;-85
2021/06/14 10:41:21;;;;;;;4.22;2.50;;;;;;;;;;4989978;28;20046;-81
2021/06/14 10:43:48;;;;;;;5.75;2.42;;;;;;;;;;4991366;28;20050;-82
2021/06/14 10:46:18;;;;;;;5.85;2.42;;;;;;;;;;4994889;28;20050;-81
2021/06/14 10:48:47;;;;;;;5.13;2.58;;;;;;;;;;4991037;28;20050;-81
2021/06/14 10:51:15;;;;;;;4.95;2.45;;;;;;;;;;4987857;28;20101;-81
2021/06/14 10:53:42;;;;;;;4.50;2.53;;;;;;;;;;4995499;28;20061;-82
2021/06/14 10:56:13;;;;;;;6.25;2.75;;;;;;;;;;4994041;28;20046;-81
2021/06/14 10:58:43;;;;;;;6.38;2.30;;;;;;;;;;4989769;28;20392;-83
2021/06/14 11:01:15;;;;;;;6.00;2.33;;;;;;;;;;4997048;28;20109;-82
2021/06/14 11:03:48;;;;;;;5.90;2.45;;;;;;;;;;4989776;28;20077;-84
2021/06/14 11:06:23;;;;;;;4.40;2.10;;;;;;;;;;4986813;28;20053;-85
2021/06/14 11:09:10;;;;;;;4.03;2.00;;;;;;;;;;4988163;28;20118;-84
2021/06/14 11:11:48;;;;;;;6.07;2.83;;;;;;;;;;4985383;28;20404;-84
2021/06/14 11:14:15;;;;;;;4.60;2.00;;;;;;;;;;4992451;28;20053;-84
2021/06/14 11:16:42;;;;;;;5.65;2.40;;;;;;;;;;4994429;28;20053;-85
2021/06/14 11:19:11;;;;;;;4.72;2.40;;;;;;;;;;4988580;28;20120;-83
2021/06/14 11:21:40;;;;;;;4.57;2.15;;;;;;;;;;4984924;28;20517;-82
2021/06/14 11:24:09;;;;;;;6.20;2.65;;;;;;;;;;4993629;28;20110;-82
2021/06/14 11:26:36;;;;;;;5.32;2.17;;;;;;;;;;4992122;28;20047;-85
2021/06/14 11:29:16;;;;;;;7.97;2.63;;;;;;;;;;4993975;28;20050;-85
2021/06/14 11:31:55;;;;;;;5.97;2.33;;;;;;;;;;4993436;28;20046;-81
2021/06/14 11:34:23;;;;;;;3.42;2.00;;;;;;;;;;4993246;28;20502;-84
2021/06/14 11:36:57;;;;;;;6.25;2.00;;;;;;;;;;4991316;28;20042;-83
2021/06/14 11:39:26;;;;;;;3.90;2.20;;;;;;;;;;4990561;28;20054;-82
2021/06/14 11:41:54;;;;;;;4.25;2.22;;;;;;;;;;4986785;28;20050;-83
2021/06/14 11:44:23;;;;;;;7.72;2.20;;;;;;;;;;4995984;28;20046;-80
2021/06/14 11:46:50;;;;;;;4.25;2.35;;;;;;;;;;4992516;28;20503;-83
2021/06/14 11:49:17;;;;;;;4.28;2.03;;;;;;;;;;4990534;28;20054;-84
2021/06/14 11:51:45;;;;;;;4.82;2.17;;;;;;;;;;4998097;28;20051;-85
2021/06/14 11:54:15;;;;;;;3.85;2.40;;;;;;;;;;4985890;28;20051;-82
2021/06/14 11:56:42;;;;;;;4.43;2.00;;;;;;;;;;4992303;28;21068;-82
2021/06/14 11:59:08;;;;;;;5.15;2.50;;;;;;;;;;4988627;28;20065;-83
2021/06/14 12:01:37;;;;;;;6.13;2.15;;;;;;;;;;4997984;28;20051;-83
2021/06/14 12:04:05;;;;;;;4.50;2.05;;;;;;;;;;4997206;28;20054;-84
2021/06/14 12:06:46;;;;;;;7.15;2.53;;;;;;;;;;4994726;28;20098;-83
2021/06/14 12:09:17;;;;;;;4.07;2.38;;;;;;;;;;4987995;28;20134;-84
2021/06/14 12:11:45;;;;;;;3.88;2.00;;;;;;;;;;4996254;28;20080;-83
2021/06/14 12:14:13;;;;;;;3.83;1.90;;;;;;;;;;4997172;28;20081;-83
2021/06/14 12:16:40;;;;;;;7.32;2.67;;;;;;;;;;4991845;28;20547;-81
2021/06/14 12:19:07;;;;;;;7.35;2.50;;;;;;;;;;4997206;28;20507;-83
2021/06/14 12:21:34;;;;;;;4.35;1.77;;;;;;;;;;4994388;28;20057;-81
2021/06/14 12:24:01;;;;;;;4.28;2.03;;;;;;;;;;4987404;28;20039;-84
2021/06/14 12:26:38;;;;;;;4.05;1.83;;;;;;;;;;4989350;28;20043;-83
2021/06/14 12:29:05;;;;;;;5.07;2.00;;;;;;;;;;4997405;28;20074;-81
2021/06/14 12:31:31;;;;;;;3.95;2.03;;;;;;;;;;5000148;28;20050;-83
2021/06/14 12:33:58;;;;;;;5.07;2.20;;;;;;;;;;4998720;28;20050;-82
2021/06/14 12:36:25;;;;;;;4.15;2.08;;;;;;;;;;4999235;28;20468;-83
2021/06/14 12:38:54;;;;;;;3.95;1.70;;;;;;;;;;5000094;28;20102;-83
2021/06/14 12:41:20;;;;;;;5.22;1.65;;;;;;;;;;4990863;28;20062;-84
2021/06/14 12:43:49;;;;;;;5.93;1.98;;;;;;;;;;4990908;28;20046;-83
2021/06/14 12:46:15;;;;;;;4.57;1.92;;;;;;;;;;4999728;28;20680;-83
2021/06/14 12:48:45;;;;;;;7.03;1.80;;;;;;;;;;4998810;28;20054;-83
2021/06/14 12:51:12;;;;;;;4.65;2.05;;;;;;;;;;4999186;28;20050;-83
2021/06/14 12:53:38;;;;;;;3.60;1.70;;;;;;;;;;4999327;28;20080;-82
2021/06/14 12:56:05;;;;;;;2.95;1.85;;;;;;;;;;5000567;28;20340;-84
2021/06/14 12:58:40;;;;;;;3.97;1.85;;;;;;;;;;4998523;28;20133;-86
2021/06/14 13:01:09;;;;;;;5.50;1.55;;;;;;;;;;5002094;28;20074;-82
2021/06/14 13:03:38;;;;;;;6.25;1.63;;;;;;;;;;5000098;28;20090;-82
2021/06/14 13:06:05;;;;;;;4.22;1.80;;;;;;;;;;5001361;28;20068;-81
2021/06/14 13:08:33;;;;;;;4.18;1.90;;;;;;;;;;4998778;28;20042;-81
2021/06/14 13:11:00;;;;;;;3.38;1.73;;;;;;;;;;4996288;28;20046;-83
2021/06/14 13:13:32;;;;;;;5.88;1.90;;;;;;;;;;4999129;28;20051;-84
2021/06/14 13:16:10;;;;;;;4.07;1.73;;;;;;;;;;5000031;28;20062;-84
2021/06/14 13:18:37;;;;;;;5.53;1.95;;;;;;;;;;4999237;28;20058;-82
2021/06/14 13:21:06;;;;;;;3.20;1.63;;;;;;;;;;4998761;28;20062;-84
2021/06/14 13:23:34;;;;;;;4.03;1.80;;;;;;;;;;4998072;28;20522;-83
2021/06/14 13:26:02;;;;;;;6.43;2.33;;;;;;;;;;4997263;28;20057;-83
2021/06/14 13:28:31;;;;;;;5.50;1.90;;;;;;;;;;4992586;28;20058;-83
2021/06/14 13:31:03;;;;;;;8.38;2.22;;;;;;;;;;4994034;28;20406;-83
2021/06/14 13:33:41;;;;;;;6.65;2.63;;;;;;;;;;4999467;28;20042;-82
2021/06/14 13:36:09;;;;;;;3.78;1.90;;;;;;;;;;4998546;28;20509;-82
2021/06/14 13:38:36;;;;;;;3.17;1.67;;;;;;;;;;4997784;28;20054;-82
2021/06/14 13:41:03;;;;;;;6.53;2.08;;;;;;;;;;4998772;28;20046;-84
2021/06/14 13:43:31;;;;;;;4.10;1.75;;;;;;;;;;4998344;28;20050;-83
2021/06/14 13:45:58;;;;;;;4.28;1.75;;;;;;;;;;4998520;28;20050;-84
2021/06/14 13:48:26;;;;;;;3.33;1.38;;;;;;;;;;4996487;28;20061;-83
2021/06/14 13:50:57;;;;;;;2.85;1.63;;;;;;;;;;4998277;28;20089;-82
2021/06/14 13:53:28;;;;;;;3.83;1.50;;;;;;;;;;4998380;28;20454;-84
2021/06/14 13:55:57;;;;;;;4.03;1.67;;;;;;;;;;4998497;28;20054;-83
2021/06/14 13:58:34;;;;;;;3.10;1.70;;;;;;;;;;4998068;28;20054;-84
2021/06/14 14:01:09;;;;;;;3.47;1.45;;;;;;;;;;4998392;28;20057;-83
2021/06/14 14:03:35;;;;;;;4.38;1.80;;;;;;;;;;4996934;28;20054;-83
2021/06/14 14:06:03;;;;;;;5.63;1.83;;;;;;;;;;4997631;28;20050;-82
2021/06/14 14:08:30;;;;;;;6.47;1.70;;;;;;;;;;4997906;28;20106;-84
2021/06/14 14:10:59;;;;;;;4.25;1.70;;;;;;;;;;4998578;28;20046;-84
2021/06/14 14:13:26;;;;;;;3.00;1.33;;;;;;;;;;4997455;28;20058;-82
2021/06/14 14:15:52;;;;;;;2.42;1.27;;;;;;;;;;4997187;28;20046;-82
2021/06/14 14:18:19;;;;;;;5.10;1.85;;;;;;;;;;4994621;28;20042;-83
2021/06/14 14:20:46;;;;;;;4.30;2.05;;;;;;;;;;4996361;28;20056;-83
2021/06/14 14:23:14;;;;;;;2.13;1.40;;;;;;;;;;4987823;28;20048;-81
2021/06/14 14:25:41;;;;;;;6.10;1.65;;;;;;;;;;4978184;28;20066;-83
2021/06/14 14:28:08;;;;;;;3.63;1.63;;;;;;;;;;4994579;28;20421;-82
2021/06/14 14:30:46;;;;;;;3.63;1.50;;;;;;;;;;4994484;28;20055;-81
2021/06/14 14:33:13;;;;;;;2.60;1.48;;;;;;;;;;4994252;28;20108;-82
2021/06/14 14:35:56;;;;;;;3.30;1.48;;;;;;;;;;4999347;28;20060;-82
2021/06/14 14:38:24;;;;;;;2.58;1.20;;;;;;;;;;4998823;28;20105;-82
2021/06/14 14:40:51;;;;;;;2.75;1.48;;;;;;;;;;5000607;28;20048;-82
2021/06/14 14:43:18;;;;;;;4.50;2.03;;;;;;;;;;4999988;28;20479;-82
2021/06/14 14:45:44;;;;;;;4.53;1.75;;;;;;;;;;5000211;28;20073;-83
2021/06/14 14:48:12;;;;;;;5.00;1.50;;;;;;;;;;4996312;28;20058;-83
2021/06/14 14:50:40;;;;;;;6.82;1.70;;;;;;;;;;5001331;28;20410;-82